Overseas Houston — WWAA — position and weather

sailwx.info

Track history (hours):
 
Tides and Currents Weather Stations Pressure Air Temp Water Temp Dewpoint Dewpoint Depression Visibility Wind Speed Wind Dir Waves Ship Positions

Overseas Houston

Owner: ASC Leasing I, Inc., Philadelphia, PA. More information available from US FCC via Universal Licensing System and Coast Guard Vessel Documentation Center.

Last reported at 2015-Jul-03 23:06 UTC. Time now 2015-Jul-04 05:07 UTC.
Position N 29°53' W 089°57'.

Type: Tanker. MMSI: 367109000.

Date/timePositionNaut miles runAvg speedWind from/ knotsBaromVisibWave heightAir tempDewpointWater temp
2015-Jul-03 23:06N 29°53' W 089°57'2 3.1
2015-Jul-03 22:33N 29°52' W 089°59'41111.7
2015-Jul-02 11:33N 27°42' W 082°34'9 9.3
2015-Jul-02 10:33N 27°51' W 082°34'1 1.1
2015-Jul-02 09:32N 27°52' W 082°33'0 0.0
2015-Jul-02 08:32N 27°52' W 082°33'0 0.0
2015-Jul-02 07:32N 27°52' W 082°33'0 0.0
2015-Jul-02 06:32N 27°52' W 082°33'0 0.0
2015-Jul-02 05:26N 27°52' W 082°33'0 0.0
2015-Jul-02 04:32N 27°52' W 082°33'0 0.0
2015-Jul-02 03:32N 27°52' W 082°33'0 0.0
2015-Jul-02 02:28N 27°52' W 082°33'0 0.0
2015-Jul-02 01:31N 27°52' W 082°33'0 0.0
2015-Jul-02 00:31N 27°52' W 082°33'0 0.0
2015-Jul-01 23:31N 27°52' W 082°33'0 0.0
2015-Jul-01 22:28N 27°52' W 082°33'0 0.0
2015-Jul-01 21:31N 27°52' W 082°33'0 0.0
2015-Jul-01 20:31N 27°52' W 082°33'0 0.0
2015-Jul-01 19:31N 27°52' W 082°33'1 0.6
2015-Jul-01 18:33N 27°51' W 082°33'7 7.4
2015-Jul-01 17:33N 27°44' W 082°32'  
2015-Jun-28 23:32N 25°29' W 080°00'1111.8
2015-Jun-28 22:33N 25°41' W 080°00'1212.0
2015-Jun-28 21:33N 25°53' W 080°00'1111.2
2015-Jun-28 20:33N 26°04' W 080°02'5 4.7
2015-Jun-28 19:31N 26°06' W 080°07'0 0.0
2015-Jun-28 18:31N 26°06' W 080°07'0 0.0
2015-Jun-28 17:31N 26°06' W 080°07'0 0.0
2015-Jun-28 16:28N 26°06' W 080°07'0 0.0
2015-Jun-28 15:31N 26°06' W 080°07'0 0.0
2015-Jun-28 14:31N 26°06' W 080°07'0 0.0
2015-Jun-28 13:31N 26°06' W 080°07'0 0.0
2015-Jun-28 12:31N 26°06' W 080°07'0 0.0
2015-Jun-28 11:31N 26°06' W 080°07'0 0.0
2015-Jun-28 10:31N 26°06' W 080°07'0 0.0
2015-Jun-28 09:31N 26°06' W 080°07'0 0.0
2015-Jun-28 08:31N 26°06' W 080°07'0 0.0
2015-Jun-28 07:31N 26°06' W 080°07'0 0.0
2015-Jun-28 06:22N 26°06' W 080°07'0 0.0
2015-Jun-28 05:22N 26°06' W 080°07'0 0.0
2015-Jun-28 04:25N 26°06' W 080°07'0 0.0
2015-Jun-28 03:25N 26°06' W 080°07'0 0.0
2015-Jun-28 02:25N 26°06' W 080°07'0 0.0
2015-Jun-28 01:25N 26°06' W 080°07'0 0.0
2015-Jun-28 00:25N 26°06' W 080°07'0 0.0
2015-Jun-27 23:28N 26°06' W 080°07'0 0.0
2015-Jun-27 22:28N 26°06' W 080°07'0 0.0
2015-Jun-27 21:28N 26°06' W 080°07'0 0.0
2015-Jun-27 20:28N 26°06' W 080°07'0 0.0
2015-Jun-27 19:28N 26°06' W 080°07'0 0.0
2015-Jun-27 18:28N 26°06' W 080°07'0 0.0
2015-Jun-27 17:31N 26°06' W 080°07'0 0.0
2015-Jun-27 16:31N 26°06' W 080°07'0 0.0
2015-Jun-27 15:31N 26°06' W 080°07'0 0.0
2015-Jun-27 14:31N 26°06' W 080°07'0 0.0
2015-Jun-27 13:31N 26°06' W 080°07'0 0.0
2015-Jun-27 12:33N 26°06' W 080°07'0 0.0
2015-Jun-27 11:33N 26°06' W 080°07'0 0.0
2015-Jun-27 10:33N 26°06' W 080°07'0 0.0
2015-Jun-27 09:33N 26°06' W 080°07'0 0.0
2015-Jun-27 08:33N 26°06' W 080°07'0 0.0
2015-Jun-27 07:33N 26°06' W 080°07'0 0.0
2015-Jun-27 06:33N 26°06' W 080°07'4 3.6
2015-Jun-27 05:34N 26°07' W 080°04'1 0.8
2015-Jun-27 04:33N 26°07' W 080°05'0 0.1
2015-Jun-27 03:33N 26°07' W 080°04'0 0.1
2015-Jun-27 02:33N 26°07' W 080°05'0 0.0
2015-Jun-27 01:33N 26°07' W 080°05'0 0.1
2015-Jun-27 00:33N 26°07' W 080°04'0 0.0
2015-Jun-26 23:33N 26°07' W 080°05'0 0.1
2015-Jun-26 22:33N 26°07' W 080°05'0 0.0
2015-Jun-26 21:33N 26°07' W 080°05'0 0.1
2015-Jun-26 20:33N 26°07' W 080°05'0 0.1
2015-Jun-26 19:33N 26°07' W 080°04'3 2.7
2015-Jun-26 18:34N 26°07' W 080°02'1111.3
2015-Jun-26 17:33N 25°57' W 079°57'58011.3
2015-Jun-24 14:10N 29°55' W 089°55'25 9.7
2015-Jun-24 11:33N 29°59' W 090°24'  
Track history (hours):
 
Tides and Currents Weather Stations Pressure Air Temp Water Temp Dewpoint Dewpoint Depression Visibility Wind Speed Wind Dir Waves Ship Positions

Overseas Houston

Owner: ASC Leasing I, Inc., Philadelphia, PA. More information available from US FCC via Universal Licensing System and Coast Guard Vessel Documentation Center.

Last reported at 2015-Jul-03 23:06 UTC. Time now 2015-Jul-04 05:07 UTC.
Position N 29°53' W 089°57'.

Type: Tanker. MMSI: 367109000.

Date/timePositionNaut miles runAvg speedWind from/ knotsBaromVisibWave heightAir tempDewpointWater temp
2015-Jul-03 23:06N 29°53' W 089°57'2 3.1
2015-Jul-03 22:33N 29°52' W 089°59'41111.7
2015-Jul-02 11:33N 27°42' W 082°34'9 9.3
2015-Jul-02 10:33N 27°51' W 082°34'1 1.1
2015-Jul-02 09:32N 27°52' W 082°33'0 0.0
2015-Jul-02 08:32N 27°52' W 082°33'0 0.0
2015-Jul-02 07:32N 27°52' W 082°33'0 0.0
2015-Jul-02 06:32N 27°52' W 082°33'0 0.0
2015-Jul-02 05:26N 27°52' W 082°33'0 0.0
2015-Jul-02 04:32N 27°52' W 082°33'0 0.0
2015-Jul-02 03:32N 27°52' W 082°33'0 0.0
2015-Jul-02 02:28N 27°52' W 082°33'0 0.0
2015-Jul-02 01:31N 27°52' W 082°33'0 0.0
2015-Jul-02 00:31N 27°52' W 082°33'0 0.0
2015-Jul-01 23:31N 27°52' W 082°33'0 0.0
2015-Jul-01 22:28N 27°52' W 082°33'0 0.0
2015-Jul-01 21:31N 27°52' W 082°33'0 0.0
2015-Jul-01 20:31N 27°52' W 082°33'0 0.0
2015-Jul-01 19:31N 27°52' W 082°33'1 0.6
2015-Jul-01 18:33N 27°51' W 082°33'7 7.4
2015-Jul-01 17:33N 27°44' W 082°32'  
2015-Jun-28 23:32N 25°29' W 080°00'1111.8
2015-Jun-28 22:33N 25°41' W 080°00'1212.0
2015-Jun-28 21:33N 25°53' W 080°00'1111.2
2015-Jun-28 20:33N 26°04' W 080°02'5 4.7
2015-Jun-28 19:31N 26°06' W 080°07'0 0.0
2015-Jun-28 18:31N 26°06' W 080°07'0 0.0
2015-Jun-28 17:31N 26°06' W 080°07'0 0.0
2015-Jun-28 16:28N 26°06' W 080°07'0 0.0
2015-Jun-28 15:31N 26°06' W 080°07'0 0.0
2015-Jun-28 14:31N 26°06' W 080°07'0 0.0
2015-Jun-28 13:31N 26°06' W 080°07'0 0.0
2015-Jun-28 12:31N 26°06' W 080°07'0 0.0
2015-Jun-28 11:31N 26°06' W 080°07'0 0.0
2015-Jun-28 10:31N 26°06' W 080°07'0 0.0
2015-Jun-28 09:31N 26°06' W 080°07'0 0.0
2015-Jun-28 08:31N 26°06' W 080°07'0 0.0
2015-Jun-28 07:31N 26°06' W 080°07'0 0.0
2015-Jun-28 06:22N 26°06' W 080°07'0 0.0
2015-Jun-28 05:22N 26°06' W 080°07'0 0.0
2015-Jun-28 04:25N 26°06' W 080°07'0 0.0
2015-Jun-28 03:25N 26°06' W 080°07'0 0.0
2015-Jun-28 02:25N 26°06' W 080°07'0 0.0
2015-Jun-28 01:25N 26°06' W 080°07'0 0.0
2015-Jun-28 00:25N 26°06' W 080°07'0 0.0
2015-Jun-27 23:28N 26°06' W 080°07'0 0.0
2015-Jun-27 22:28N 26°06' W 080°07'0 0.0
2015-Jun-27 21:28N 26°06' W 080°07'0 0.0
2015-Jun-27 20:28N 26°06' W 080°07'0 0.0
2015-Jun-27 19:28N 26°06' W 080°07'0 0.0
2015-Jun-27 18:28N 26°06' W 080°07'0 0.0
2015-Jun-27 17:31N 26°06' W 080°07'0 0.0
2015-Jun-27 16:31N 26°06' W 080°07'0 0.0
2015-Jun-27 15:31N 26°06' W 080°07'0 0.0
2015-Jun-27 14:31N 26°06' W 080°07'0 0.0
2015-Jun-27 13:31N 26°06' W 080°07'0 0.0
2015-Jun-27 12:33N 26°06' W 080°07'0 0.0
2015-Jun-27 11:33N 26°06' W 080°07'0 0.0
2015-Jun-27 10:33N 26°06' W 080°07'0 0.0
2015-Jun-27 09:33N 26°06' W 080°07'0 0.0
2015-Jun-27 08:33N 26°06' W 080°07'0 0.0
2015-Jun-27 07:33N 26°06' W 080°07'0 0.0
2015-Jun-27 06:33N 26°06' W 080°07'4 3.6
2015-Jun-27 05:34N 26°07' W 080°04'1 0.8
2015-Jun-27 04:33N 26°07' W 080°05'0 0.1
2015-Jun-27 03:33N 26°07' W 080°04'0 0.1
2015-Jun-27 02:33N 26°07' W 080°05'0 0.0
2015-Jun-27 01:33N 26°07' W 080°05'0 0.1
2015-Jun-27 00:33N 26°07' W 080°04'0 0.0
2015-Jun-26 23:33N 26°07' W 080°05'0 0.1
2015-Jun-26 22:33N 26°07' W 080°05'0 0.0
2015-Jun-26 21:33N 26°07' W 080°05'0 0.1
2015-Jun-26 20:33N 26°07' W 080°05'0 0.1
2015-Jun-26 19:33N 26°07' W 080°04'3 2.7
2015-Jun-26 18:34N 26°07' W 080°02'1111.3
2015-Jun-26 17:33N 25°57' W 079°57'58011.3
2015-Jun-24 14:10N 29°55' W 089°55'25 9.7
2015-Jun-24 11:33N 29°59' W 090°24'  

Dump ship's entire track history